sensor_id;sensor_type;location;lat;lon;timestamp;temperature;humidity
75170;SHT31;63749;49.186;9.222;2022-11-15T00:01:29;11.12;77.92
75170;SHT31;63749;49.186;9.222;2022-11-15T00:03:55;11.23;77.30
75170;SHT31;63749;49.186;9.222;2022-11-15T00:06:21;11.19;77.69
75170;SHT31;63749;49.186;9.222;2022-11-15T00:08:46;11.22;77.69
75170;SHT31;63749;49.186;9.222;2022-11-15T00:11:12;11.18;77.43
75170;SHT31;63749;49.186;9.222;2022-11-15T00:13:38;11.18;78.57
75170;SHT31;63749;49.186;9.222;2022-11-15T00:16:03;11.16;77.71
75170;SHT31;63749;49.186;9.222;2022-11-15T00:18:29;11.18;77.45
75170;SHT31;63749;49.186;9.222;2022-11-15T00:20:56;11.26;76.78
75170;SHT31;63749;49.186;9.222;2022-11-15T00:23:21;11.30;77.11
75170;SHT31;63749;49.186;9.222;2022-11-15T00:25:46;11.35;76.41
75170;SHT31;63749;49.186;9.222;2022-11-15T00:28:12;11.40;75.74
75170;SHT31;63749;49.186;9.222;2022-11-15T00:30:37;11.55;74.45
75170;SHT31;63749;49.186;9.222;2022-11-15T00:33:04;11.59;74.51
75170;SHT31;63749;49.186;9.222;2022-11-15T00:35:31;11.56;74.71
75170;SHT31;63749;49.186;9.222;2022-11-15T00:37:57;11.62;74.27
75170;SHT31;63749;49.186;9.222;2022-11-15T00:40:23;11.66;74.15
75170;SHT31;63749;49.186;9.222;2022-11-15T00:42:48;11.63;74.56
75170;SHT31;63749;49.186;9.222;2022-11-15T00:45:14;11.63;74.41
75170;SHT31;63749;49.186;9.222;2022-11-15T00:47:39;11.60;74.46
75170;SHT31;63749;49.186;9.222;2022-11-15T00:50:05;11.58;74.63
75170;SHT31;63749;49.186;9.222;2022-11-15T00:52:30;11.50;74.81
75170;SHT31;63749;49.186;9.222;2022-11-15T00:54:55;11.46;74.36
75170;SHT31;63749;49.186;9.222;2022-11-15T00:57:21;11.44;74.65
75170;SHT31;63749;49.186;9.222;2022-11-15T00:59:46;11.33;74.61
75170;SHT31;63749;49.186;9.222;2022-11-15T01:02:11;11.21;75.31
75170;SHT31;63749;49.186;9.222;2022-11-15T01:04:37;11.02;76.07
75170;SHT31;63749;49.186;9.222;2022-11-15T01:07:02;10.94;75.99
75170;SHT31;63749;49.186;9.222;2022-11-15T01:09:28;10.77;76.68
75170;SHT31;63749;49.186;9.222;2022-11-15T01:11:53;10.61;77.25
75170;SHT31;63749;49.186;9.222;2022-11-15T01:14:18;10.57;77.46
75170;SHT31;63749;49.186;9.222;2022-11-15T01:16:44;10.44;77.70
75170;SHT31;63749;49.186;9.222;2022-11-15T01:19:09;10.36;78.24
75170;SHT31;63749;49.186;9.222;2022-11-15T01:21:34;10.26;78.49
75170;SHT31;63749;49.186;9.222;2022-11-15T01:24:00;10.16;78.92
75170;SHT31;63749;49.186;9.222;2022-11-15T01:26:25;10.12;79.19
75170;SHT31;63749;49.186;9.222;2022-11-15T01:28:50;10.23;78.80
75170;SHT31;63749;49.186;9.222;2022-11-15T01:31:18;10.29;78.48
75170;SHT31;63749;49.186;9.222;2022-11-15T01:33:45;10.29;78.46
75170;SHT31;63749;49.186;9.222;2022-11-15T01:36:16;10.24;78.78
75170;SHT31;63749;49.186;9.222;2022-11-15T01:38:42;10.09;79.31
75170;SHT31;63749;49.186;9.222;2022-11-15T01:41:15;9.96;79.82
75170;SHT31;63749;49.186;9.222;2022-11-15T01:43:41;9.92;80.12
75170;SHT31;63749;49.186;9.222;2022-11-15T01:46:30;10.01;79.61
75170;SHT31;63749;49.186;9.222;2022-11-15T01:49:04;10.02;79.53
75170;SHT31;63749;49.186;9.222;2022-11-15T01:51:32;9.93;80.13
75170;SHT31;63749;49.186;9.222;2022-11-15T01:54:02;9.92;80.48
75170;SHT31;63749;49.186;9.222;2022-11-15T01:56:33;9.85;80.76
75170;SHT31;63749;49.186;9.222;2022-11-15T01:59:03;9.62;81.53
75170;SHT31;63749;49.186;9.222;2022-11-15T02:01:30;9.47;82.24
75170;SHT31;63749;49.186;9.222;2022-11-15T02:04:04;9.41;82.79
75170;SHT31;63749;49.186;9.222;2022-11-15T02:06:32;9.30;83.53
75170;SHT31;63749;49.186;9.222;2022-11-15T02:08:58;9.19;83.89
75170;SHT31;63749;49.186;9.222;2022-11-15T02:11:24;9.09;84.33
75170;SHT31;63749;49.186;9.222;2022-11-15T02:13:50;9.06;84.28
75170;SHT31;63749;49.186;9.222;2022-11-15T02:19:13;9.07;84.76
75170;SHT31;63749;49.186;9.222;2022-11-15T02:27:06;8.63;85.99
75170;SHT31;63749;49.186;9.222;2022-11-15T02:32:51;8.44;86.76
75170;SHT31;63749;49.186;9.222;2022-11-15T02:35:30;8.33;87.12
75170;SHT31;63749;49.186;9.222;2022-11-15T02:41:20;8.20;87.84
75170;SHT31;63749;49.186;9.222;2022-11-15T02:43:48;8.14;88.20
75170;SHT31;63749;49.186;9.222;2022-11-15T02:49:14;8.21;87.89
75170;SHT31;63749;49.186;9.222;2022-11-15T02:51:40;8.45;86.60
75170;SHT31;63749;49.186;9.222;2022-11-15T02:54:07;8.52;86.08
75170;SHT31;63749;49.186;9.222;2022-11-15T02:56:32;8.59;86.05
75170;SHT31;63749;49.186;9.222;2022-11-15T02:59:13;8.56;86.09
75170;SHT31;63749;49.186;9.222;2022-11-15T03:05:10;8.40;86.90
75170;SHT31;63749;49.186;9.222;2022-11-15T03:07:49;8.44;87.35
75170;SHT31;63749;49.186;9.222;2022-11-15T03:10:18;8.52;87.91
75170;SHT31;63749;49.186;9.222;2022-11-15T03:12:51;8.61;87.57
75170;SHT31;63749;49.186;9.222;2022-11-15T03:15:37;8.62;87.44
75170;SHT31;63749;49.186;9.222;2022-11-15T03:18:19;8.59;87.49
75170;SHT31;63749;49.186;9.222;2022-11-15T03:20:47;8.59;87.45
75170;SHT31;63749;49.186;9.222;2022-11-15T03:23:13;8.63;87.55
75170;SHT31;63749;49.186;9.222;2022-11-15T03:25:45;8.71;86.97
75170;SHT31;63749;49.186;9.222;2022-11-15T03:28:18;8.73;86.79
75170;SHT31;63749;49.186;9.222;2022-11-15T03:30:47;8.72;86.88
75170;SHT31;63749;49.186;9.222;2022-11-15T03:33:15;8.73;86.81
75170;SHT31;63749;49.186;9.222;2022-11-15T03:35:43;8.71;87.02
75170;SHT31;63749;49.186;9.222;2022-11-15T03:38:23;8.68;87.16
75170;SHT31;63749;49.186;9.222;2022-11-15T03:40:56;8.66;87.17
75170;SHT31;63749;49.186;9.222;2022-11-15T03:46:17;8.82;87.26
75170;SHT31;63749;49.186;9.222;2022-11-15T03:48:49;8.84;86.99
75170;SHT31;63749;49.186;9.222;2022-11-15T03:51:16;8.82;87.08
75170;SHT31;63749;49.186;9.222;2022-11-15T03:53:41;8.84;86.58
75170;SHT31;63749;49.186;9.222;2022-11-15T03:56:07;8.68;87.04
75170;SHT31;63749;49.186;9.222;2022-11-15T03:58:32;8.52;87.82
75170;SHT31;63749;49.186;9.222;2022-11-15T04:00:57;8.34;88.49
75170;SHT31;63749;49.186;9.222;2022-11-15T04:03:24;8.25;88.89
75170;SHT31;63749;49.186;9.222;2022-11-15T04:05:50;8.24;88.89
75170;SHT31;63749;49.186;9.222;2022-11-15T04:08:15;8.35;88.90
75170;SHT31;63749;49.186;9.222;2022-11-15T04:10:40;8.40;88.61
75170;SHT31;63749;49.186;9.222;2022-11-15T04:13:06;8.46;88.35
75170;SHT31;63749;49.186;9.222;2022-11-15T04:15:31;8.54;88.65
75170;SHT31;63749;49.186;9.222;2022-11-15T04:17:57;8.63;88.15
75170;SHT31;63749;49.186;9.222;2022-11-15T04:20:28;8.71;88.34
75170;SHT31;63749;49.186;9.222;2022-11-15T04:23:15;8.66;88.22
75170;SHT31;63749;49.186;9.222;2022-11-15T04:26:05;8.61;88.61
75170;SHT31;63749;49.186;9.222;2022-11-15T04:28:32;8.63;88.44
75170;SHT31;63749;49.186;9.222;2022-11-15T04:30:57;8.63;88.41
75170;SHT31;63749;49.186;9.222;2022-11-15T04:33:24;8.65;88.50
75170;SHT31;63749;49.186;9.222;2022-11-15T04:35:49;8.61;88.86
75170;SHT31;63749;49.186;9.222;2022-11-15T04:38:34;8.76;88.26
75170;SHT31;63749;49.186;9.222;2022-11-15T04:41:00;8.90;87.68
75170;SHT31;63749;49.186;9.222;2022-11-15T04:43:25;8.99;87.00
75170;SHT31;63749;49.186;9.222;2022-11-15T04:45:51;8.94;87.30
75170;SHT31;63749;49.186;9.222;2022-11-15T04:48:16;8.90;87.42
75170;SHT31;63749;49.186;9.222;2022-11-15T04:50:41;8.99;87.45
75170;SHT31;63749;49.186;9.222;2022-11-15T04:53:07;9.06;87.25
75170;SHT31;63749;49.186;9.222;2022-11-15T04:55:32;9.28;86.26
75170;SHT31;63749;49.186;9.222;2022-11-15T04:57:58;9.26;86.47
75170;SHT31;63749;49.186;9.222;2022-11-15T05:00:25;9.22;86.54
75170;SHT31;63749;49.186;9.222;2022-11-15T05:02:51;9.17;86.79
75170;SHT31;63749;49.186;9.222;2022-11-15T05:05:35;9.06;87.60
75170;SHT31;63749;49.186;9.222;2022-11-15T05:08:01;8.93;88.24
75170;SHT31;63749;49.186;9.222;2022-11-15T05:10:26;8.96;88.31
75170;SHT31;63749;49.186;9.222;2022-11-15T05:12:52;8.94;88.19
75170;SHT31;63749;49.186;9.222;2022-11-15T05:15:17;8.92;88.26
75170;SHT31;63749;49.186;9.222;2022-11-15T05:17:42;8.89;88.48
75170;SHT31;63749;49.186;9.222;2022-11-15T05:20:08;8.93;88.36
75170;SHT31;63749;49.186;9.222;2022-11-15T05:22:34;8.99;88.04
75170;SHT31;63749;49.186;9.222;2022-11-15T05:24:59;8.86;88.43
75170;SHT31;63749;49.186;9.222;2022-11-15T05:27:24;8.72;88.79
75170;SHT31;63749;49.186;9.222;2022-11-15T05:29:50;8.54;89.74
75170;SHT31;63749;49.186;9.222;2022-11-15T05:32:15;8.44;89.82
75170;SHT31;63749;49.186;9.222;2022-11-15T05:34:41;8.33;90.01
75170;SHT31;63749;49.186;9.222;2022-11-15T05:37:07;8.20;90.41
75170;SHT31;63749;49.186;9.222;2022-11-15T05:39:32;8.04;90.80
75170;SHT31;63749;49.186;9.222;2022-11-15T05:42:06;7.90;91.24
75170;SHT31;63749;49.186;9.222;2022-11-15T05:44:33;7.98;91.55
75170;SHT31;63749;49.186;9.222;2022-11-15T05:47:03;7.95;91.56
75170;SHT31;63749;49.186;9.222;2022-11-15T05:49:33;7.93;91.75
75170;SHT31;63749;49.186;9.222;2022-11-15T05:52:03;7.73;92.40
75170;SHT31;63749;49.186;9.222;2022-11-15T05:54:30;7.62;92.45
75170;SHT31;63749;49.186;9.222;2022-11-15T05:56:56;7.56;92.94
75170;SHT31;63749;49.186;9.222;2022-11-15T05:59:21;7.49;93.13
75170;SHT31;63749;49.186;9.222;2022-11-15T06:01:46;7.42;93.35
75170;SHT31;63749;49.186;9.222;2022-11-15T06:04:12;7.42;93.46
75170;SHT31;63749;49.186;9.222;2022-11-15T06:06:37;7.45;93.64
75170;SHT31;63749;49.186;9.222;2022-11-15T06:09:02;7.36;93.45
75170;SHT31;63749;49.186;9.222;2022-11-15T06:11:28;7.38;93.72
75170;SHT31;63749;49.186;9.222;2022-11-15T06:13:53;7.35;94.00
75170;SHT31;63749;49.186;9.222;2022-11-15T06:16:19;7.31;94.03
75170;SHT31;63749;49.186;9.222;2022-11-15T06:18:44;7.28;94.13
75170;SHT31;63749;49.186;9.222;2022-11-15T06:21:10;7.43;93.87
75170;SHT31;63749;49.186;9.222;2022-11-15T06:23:35;7.52;93.92
75170;SHT31;63749;49.186;9.222;2022-11-15T06:26:01;7.51;93.79
75170;SHT31;63749;49.186;9.222;2022-11-15T06:28:28;7.45;93.59
75170;SHT31;63749;49.186;9.222;2022-11-15T06:30:54;7.58;95.09
75170;SHT31;63749;49.186;9.222;2022-11-15T06:33:19;7.67;94.50
75170;SHT31;63749;49.186;9.222;2022-11-15T06:35:45;7.83;93.26
75170;SHT31;63749;49.186;9.222;2022-11-15T06:38:10;7.70;92.86
75170;SHT31;63749;49.186;9.222;2022-11-15T06:40:37;8.17;93.70
75170;SHT31;63749;49.186;9.222;2022-11-15T06:43:03;9.68;98.78
75170;SHT31;63749;49.186;9.222;2022-11-15T06:45:29;9.02;94.41
75170;SHT31;63749;49.186;9.222;2022-11-15T06:47:55;8.52;91.14
75170;SHT31;63749;49.186;9.222;2022-11-15T06:50:21;9.02;94.89
75170;SHT31;63749;49.186;9.222;2022-11-15T06:52:46;8.52;91.16
75170;SHT31;63749;49.186;9.222;2022-11-15T06:55:11;8.28;92.21
75170;SHT31;63749;49.186;9.222;2022-11-15T06:57:37;8.14;92.89
75170;SHT31;63749;49.186;9.222;2022-11-15T07:00:04;8.82;92.65
75170;SHT31;63749;49.186;9.222;2022-11-15T07:02:30;8.46;91.67
75170;SHT31;63749;49.186;9.222;2022-11-15T07:04:55;8.76;89.20
75170;SHT31;63749;49.186;9.222;2022-11-15T07:07:20;8.40;89.72
75170;SHT31;63749;49.186;9.222;2022-11-15T07:09:46;8.20;90.39
75170;SHT31;63749;49.186;9.222;2022-11-15T07:12:11;8.18;90.68
75170;SHT31;63749;49.186;9.222;2022-11-15T07:14:36;7.98;91.09
75170;SHT31;63749;49.186;9.222;2022-11-15T07:17:05;8.05;91.68
75170;SHT31;63749;49.186;9.222;2022-11-15T07:19:30;7.98;91.50
75170;SHT31;63749;49.186;9.222;2022-11-15T07:21:56;8.00;91.44
75170;SHT31;63749;49.186;9.222;2022-11-15T07:24:21;8.03;91.52
75170;SHT31;63749;49.186;9.222;2022-11-15T07:26:46;8.05;90.97
75170;SHT31;63749;49.186;9.222;2022-11-15T07:29:12;7.93;90.79
75170;SHT31;63749;49.186;9.222;2022-11-15T07:31:37;7.82;91.51
75170;SHT31;63749;49.186;9.222;2022-11-15T07:34:03;7.86;91.20
75170;SHT31;63749;49.186;9.222;2022-11-15T07:36:28;7.87;91.19
75170;SHT31;63749;49.186;9.222;2022-11-15T07:38:53;7.93;91.08
75170;SHT31;63749;49.186;9.222;2022-11-15T07:41:19;8.03;90.92
75170;SHT31;63749;49.186;9.222;2022-11-15T07:43:44;8.07;90.52
75170;SHT31;63749;49.186;9.222;2022-11-15T07:46:09;8.01;90.64
75170;SHT31;63749;49.186;9.222;2022-11-15T07:48:36;8.15;90.98
75170;SHT31;63749;49.186;9.222;2022-11-15T07:51:02;8.27;90.70
75170;SHT31;63749;49.186;9.222;2022-11-15T07:53:27;8.38;90.59
75170;SHT31;63749;49.186;9.222;2022-11-15T07:55:53;8.46;90.12
75170;SHT31;63749;49.186;9.222;2022-11-15T07:58:19;8.56;89.71
75170;SHT31;63749;49.186;9.222;2022-11-15T08:00:44;8.73;89.86
75170;SHT31;63749;49.186;9.222;2022-11-15T08:03:15;8.84;89.12
75170;SHT31;63749;49.186;9.222;2022-11-15T08:05:41;8.77;88.90
75170;SHT31;63749;49.186;9.222;2022-11-15T08:08:09;8.73;89.06
75170;SHT31;63749;49.186;9.222;2022-11-15T08:10:35;8.76;88.96
75170;SHT31;63749;49.186;9.222;2022-11-15T08:13:08;8.90;89.15
75170;SHT31;63749;49.186;9.222;2022-11-15T08:15:35;9.09;88.15
75170;SHT31;63749;49.186;9.222;2022-11-15T08:18:03;9.24;87.07
75170;SHT31;63749;49.186;9.222;2022-11-15T08:20:29;9.40;87.75
75170;SHT31;63749;49.186;9.222;2022-11-15T08:22:59;9.59;86.12
75170;SHT31;63749;49.186;9.222;2022-11-15T08:25:26;9.92;84.67
75170;SHT31;63749;49.186;9.222;2022-11-15T08:27:53;10.06;83.64
75170;SHT31;63749;49.186;9.222;2022-11-15T08:30:19;10.20;82.50
75170;SHT31;63749;49.186;9.222;2022-11-15T08:32:44;10.29;82.71
75170;SHT31;63749;49.186;9.222;2022-11-15T08:35:10;10.36;81.88
75170;SHT31;63749;49.186;9.222;2022-11-15T08:37:35;10.46;82.26
75170;SHT31;63749;49.186;9.222;2022-11-15T08:40:01;10.53;81.66
75170;SHT31;63749;49.186;9.222;2022-11-15T08:42:26;10.67;81.22
75170;SHT31;63749;49.186;9.222;2022-11-15T08:44:51;10.78;79.60
75170;SHT31;63749;49.186;9.222;2022-11-15T08:47:17;10.91;79.88
75170;SHT31;63749;49.186;9.222;2022-11-15T08:49:42;11.04;79.77
75170;SHT31;63749;49.186;9.222;2022-11-15T08:52:07;11.15;78.99
75170;SHT31;63749;49.186;9.222;2022-11-15T08:54:33;11.30;79.04
75170;SHT31;63749;49.186;9.222;2022-11-15T08:56:58;11.40;77.93
75170;SHT31;63749;49.186;9.222;2022-11-15T08:59:23;11.40;77.50
75170;SHT31;63749;49.186;9.222;2022-11-15T09:01:49;11.66;76.95
75170;SHT31;63749;49.186;9.222;2022-11-15T09:04:14;11.93;76.40
75170;SHT31;63749;49.186;9.222;2022-11-15T09:06:40;12.31;75.65
75170;SHT31;63749;49.186;9.222;2022-11-15T09:09:05;12.45;74.80
75170;SHT31;63749;49.186;9.222;2022-11-15T09:11:31;12.53;74.33
75170;SHT31;63749;49.186;9.222;2022-11-15T09:13:56;12.53;74.90
75170;SHT31;63749;49.186;9.222;2022-11-15T09:16:21;12.50;74.34
75170;SHT31;63749;49.186;9.222;2022-11-15T09:18:47;12.60;74.67
75170;SHT31;63749;49.186;9.222;2022-11-15T09:21:12;12.70;74.49
75170;SHT31;63749;49.186;9.222;2022-11-15T09:23:38;12.79;74.45
75170;SHT31;63749;49.186;9.222;2022-11-15T09:26:04;12.79;74.93
75170;SHT31;63749;49.186;9.222;2022-11-15T09:28:31;12.82;73.93
75170;SHT31;63749;49.186;9.222;2022-11-15T09:31:01;12.92;73.58
75170;SHT31;63749;49.186;9.222;2022-11-15T09:33:27;13.04;73.41
75170;SHT31;63749;49.186;9.222;2022-11-15T09:35:52;13.04;73.05
75170;SHT31;63749;49.186;9.222;2022-11-15T09:38:18;13.04;73.25
75170;SHT31;63749;49.186;9.222;2022-11-15T09:40:47;13.14;73.51
75170;SHT31;63749;49.186;9.222;2022-11-15T09:43:37;13.11;73.33
75170;SHT31;63749;49.186;9.222;2022-11-15T09:46:15;13.21;73.21
75170;SHT31;63749;49.186;9.222;2022-11-15T09:48:53;13.31;73.13
75170;SHT31;63749;49.186;9.222;2022-11-15T09:51:28;13.23;73.40
75170;SHT31;63749;49.186;9.222;2022-11-15T09:54:05;13.21;73.74
75170;SHT31;63749;49.186;9.222;2022-11-15T09:56:37;13.14;73.75
75170;SHT31;63749;49.186;9.222;2022-11-15T10:04:46;12.99;72.88
75170;SHT31;63749;49.186;9.222;2022-11-15T10:07:25;13.10;73.16
75170;SHT31;63749;49.186;9.222;2022-11-15T10:10:02;13.28;72.16
75170;SHT31;63749;49.186;9.222;2022-11-15T10:12:33;13.38;72.28
75170;SHT31;63749;49.186;9.222;2022-11-15T10:15:02;13.37;72.16
75170;SHT31;63749;49.186;9.222;2022-11-15T10:20:47;13.43;72.56
75170;SHT31;63749;49.186;9.222;2022-11-15T10:23:18;13.41;73.01
75170;SHT31;63749;49.186;9.222;2022-11-15T10:25:44;13.38;73.16
75170;SHT31;63749;49.186;9.222;2022-11-15T10:28:29;13.38;73.43
75170;SHT31;63749;49.186;9.222;2022-11-15T10:30:57;13.47;73.27
75170;SHT31;63749;49.186;9.222;2022-11-15T10:41:18;13.54;72.66
75170;SHT31;63749;49.186;9.222;2022-11-15T10:43:44;13.43;72.02
75170;SHT31;63749;49.186;9.222;2022-11-15T10:46:27;13.50;71.59
75170;SHT31;63749;49.186;9.222;2022-11-15T10:48:53;13.51;71.99
75170;SHT31;63749;49.186;9.222;2022-11-15T10:51:29;13.50;72.19
75170;SHT31;63749;49.186;9.222;2022-11-15T10:53:57;13.54;71.78
75170;SHT31;63749;49.186;9.222;2022-11-15T10:56:25;13.47;71.50
75170;SHT31;63749;49.186;9.222;2022-11-15T10:58:54;13.44;71.45
75170;SHT31;63749;49.186;9.222;2022-11-15T11:01:27;13.47;71.80
75170;SHT31;63749;49.186;9.222;2022-11-15T11:04:03;13.31;72.46
75170;SHT31;63749;49.186;9.222;2022-11-15T11:06:29;13.38;72.01
75170;SHT31;63749;49.186;9.222;2022-11-15T11:09:02;13.33;72.01
75170;SHT31;63749;49.186;9.222;2022-11-15T11:11:45;13.36;72.35
75170;SHT31;63749;49.186;9.222;2022-11-15T11:14:13;13.40;72.98
75170;SHT31;63749;49.186;9.222;2022-11-15T11:16:46;13.45;73.06
75170;SHT31;63749;49.186;9.222;2022-11-15T11:19:23;13.57;73.10
75170;SHT31;63749;49.186;9.222;2022-11-15T11:22:40;13.61;72.55
75170;SHT31;63749;49.186;9.222;2022-11-15T11:27:26;13.65;73.87
75170;SHT31;63749;49.186;9.222;2022-11-15T11:33:05;13.92;72.70
75170;SHT31;63749;49.186;9.222;2022-11-15T11:38:34;13.99;72.83
75170;SHT31;63749;49.186;9.222;2022-11-15T11:47:01;13.88;72.80
75170;SHT31;63749;49.186;9.222;2022-11-15T11:52:55;14.08;72.48
75170;SHT31;63749;49.186;9.222;2022-11-15T11:55:26;14.29;72.25
75170;SHT31;63749;49.186;9.222;2022-11-15T11:58:12;14.47;70.15
75170;SHT31;63749;49.186;9.222;2022-11-15T12:00:41;14.64;69.79
75170;SHT31;63749;49.186;9.222;2022-11-15T12:05:56;15.23;68.63
75170;SHT31;63749;49.186;9.222;2022-11-15T12:08:38;15.38;67.15
75170;SHT31;63749;49.186;9.222;2022-11-15T12:11:15;15.21;65.96
75170;SHT31;63749;49.186;9.222;2022-11-15T12:13:42;14.87;67.29
75170;SHT31;63749;49.186;9.222;2022-11-15T12:16:21;14.88;68.38
75170;SHT31;63749;49.186;9.222;2022-11-15T12:18:51;15.09;68.60
75170;SHT31;63749;49.186;9.222;2022-11-15T12:24:06;15.09;67.77
75170;SHT31;63749;49.186;9.222;2022-11-15T12:26:40;15.38;67.27
75170;SHT31;63749;49.186;9.222;2022-11-15T12:29:18;15.36;67.37
75170;SHT31;63749;49.186;9.222;2022-11-15T12:31:49;15.54;66.83
75170;SHT31;63749;49.186;9.222;2022-11-15T12:36:49;15.54;66.64
75170;SHT31;63749;49.186;9.222;2022-11-15T12:39:15;15.57;66.60
75170;SHT31;63749;49.186;9.222;2022-11-15T12:59:48;14.94;69.89
75170;SHT31;63749;49.186;9.222;2022-11-15T13:02:41;14.89;71.20
75170;SHT31;63749;49.186;9.222;2022-11-15T13:10:30;14.84;71.02
75170;SHT31;63749;49.186;9.222;2022-11-15T13:12:57;14.94;70.83
75170;SHT31;63749;49.186;9.222;2022-11-15T13:15:58;14.84;71.29
75170;SHT31;63749;49.186;9.222;2022-11-15T13:18:37;14.77;70.20
75170;SHT31;63749;49.186;9.222;2022-11-15T13:21:05;14.85;69.69
75170;SHT31;63749;49.186;9.222;2022-11-15T13:24:03;14.81;69.54
75170;SHT31;63749;49.186;9.222;2022-11-15T13:26:28;14.68;69.59
75170;SHT31;63749;49.186;9.222;2022-11-15T13:28:53;14.77;69.59
75170;SHT31;63749;49.186;9.222;2022-11-15T13:31:44;14.75;69.68
75170;SHT31;63749;49.186;9.222;2022-11-15T13:34:36;14.84;69.63
75170;SHT31;63749;49.186;9.222;2022-11-15T13:37:02;14.75;69.75
75170;SHT31;63749;49.186;9.222;2022-11-15T13:39:30;14.85;69.99
75170;SHT31;63749;49.186;9.222;2022-11-15T13:41:56;14.85;69.43
75170;SHT31;63749;49.186;9.222;2022-11-15T13:44:26;14.88;70.65
75170;SHT31;63749;49.186;9.222;2022-11-15T13:47:21;14.91;71.11
75170;SHT31;63749;49.186;9.222;2022-11-15T13:49:46;14.98;71.37
75170;SHT31;63749;49.186;9.222;2022-11-15T13:52:14;15.05;71.27
75170;SHT31;63749;49.186;9.222;2022-11-15T13:54:45;15.06;71.25
75170;SHT31;63749;49.186;9.222;2022-11-15T13:59:48;15.02;72.02
75170;SHT31;63749;49.186;9.222;2022-11-15T14:02:18;14.91;72.48
75170;SHT31;63749;49.186;9.222;2022-11-15T14:04:50;14.85;72.04
75170;SHT31;63749;49.186;9.222;2022-11-15T14:07:18;14.78;73.19
75170;SHT31;63749;49.186;9.222;2022-11-15T14:09:44;14.75;72.52
75170;SHT31;63749;49.186;9.222;2022-11-15T14:12:34;14.75;72.35
75170;SHT31;63749;49.186;9.222;2022-11-15T14:15:19;14.78;71.70
75170;SHT31;63749;49.186;9.222;2022-11-15T14:17:47;14.70;72.96
75170;SHT31;63749;49.186;9.222;2022-11-15T14:20:33;14.65;73.62
75170;SHT31;63749;49.186;9.222;2022-11-15T14:23:25;14.56;74.21
75170;SHT31;63749;49.186;9.222;2022-11-15T14:25:56;14.51;74.83
75170;SHT31;63749;49.186;9.222;2022-11-15T14:30:47;14.47;75.17
75170;SHT31;63749;49.186;9.222;2022-11-15T14:33:32;14.56;74.92
75170;SHT31;63749;49.186;9.222;2022-11-15T14:36:06;14.53;75.44
75170;SHT31;63749;49.186;9.222;2022-11-15T14:38:32;14.46;75.36
75170;SHT31;63749;49.186;9.222;2022-11-15T14:40:57;14.36;76.02
75170;SHT31;63749;49.186;9.222;2022-11-15T14:43:23;14.32;75.55
75170;SHT31;63749;49.186;9.222;2022-11-15T14:45:49;14.32;75.52
75170;SHT31;63749;49.186;9.222;2022-11-15T14:48:14;14.33;75.44
75170;SHT31;63749;49.186;9.222;2022-11-15T14:50:40;14.34;75.30
75170;SHT31;63749;49.186;9.222;2022-11-15T14:53:05;14.27;75.58
75170;SHT31;63749;49.186;9.222;2022-11-15T14:55:33;14.20;75.98
75170;SHT31;63749;49.186;9.222;2022-11-15T14:58:02;14.13;76.06
75170;SHT31;63749;49.186;9.222;2022-11-15T15:00:32;14.09;76.27
75170;SHT31;63749;49.186;9.222;2022-11-15T15:02:57;14.13;76.02
75170;SHT31;63749;49.186;9.222;2022-11-15T15:05:26;14.15;75.85
75170;SHT31;63749;49.186;9.222;2022-11-15T15:07:54;14.22;75.97
75170;SHT31;63749;49.186;9.222;2022-11-15T15:10:20;14.26;76.87
75170;SHT31;63749;49.186;9.222;2022-11-15T15:12:45;14.12;76.55
75170;SHT31;63749;49.186;9.222;2022-11-15T15:15:24;13.99;77.23
75170;SHT31;63749;49.186;9.222;2022-11-15T15:17:50;13.90;77.50
75170;SHT31;63749;49.186;9.222;2022-11-15T15:20:16;13.88;77.61
75170;SHT31;63749;49.186;9.222;2022-11-15T15:22:41;13.75;77.76
75170;SHT31;63749;49.186;9.222;2022-11-15T15:25:28;13.62;78.06
75170;SHT31;63749;49.186;9.222;2022-11-15T15:27:54;13.55;78.71
75170;SHT31;63749;49.186;9.222;2022-11-15T15:30:25;13.44;79.41
75170;SHT31;63749;49.186;9.222;2022-11-15T15:32:50;13.37;79.47
75170;SHT31;63749;49.186;9.222;2022-11-15T15:35:17;13.34;80.13
75170;SHT31;63749;49.186;9.222;2022-11-15T15:37:44;13.36;79.90
75170;SHT31;63749;49.186;9.222;2022-11-15T15:40:18;13.27;80.17
75170;SHT31;63749;49.186;9.222;2022-11-15T15:42:45;13.18;81.79
75170;SHT31;63749;49.186;9.222;2022-11-15T15:45:11;13.20;81.50
75170;SHT31;63749;49.186;9.222;2022-11-15T15:47:36;13.17;81.61
75170;SHT31;63749;49.186;9.222;2022-11-15T15:50:03;13.13;81.81
75170;SHT31;63749;49.186;9.222;2022-11-15T15:52:28;12.96;82.48
75170;SHT31;63749;49.186;9.222;2022-11-15T15:54:54;12.89;83.07
75170;SHT31;63749;49.186;9.222;2022-11-15T15:57:19;12.83;83.33
75170;SHT31;63749;49.186;9.222;2022-11-15T15:59:44;12.80;83.38
75170;SHT31;63749;49.186;9.222;2022-11-15T16:02:13;12.82;83.26
75170;SHT31;63749;49.186;9.222;2022-11-15T16:04:39;12.80;83.09
75170;SHT31;63749;49.186;9.222;2022-11-15T16:07:04;13.00;82.35
75170;SHT31;63749;49.186;9.222;2022-11-15T16:09:30;13.11;81.66
75170;SHT31;63749;49.186;9.222;2022-11-15T16:12:14;13.03;81.70
75170;SHT31;63749;49.186;9.222;2022-11-15T16:14:41;12.92;82.96
75170;SHT31;63749;49.186;9.222;2022-11-15T16:17:11;12.86;83.20
75170;SHT31;63749;49.186;9.222;2022-11-15T16:19:40;12.76;82.98
75170;SHT31;63749;49.186;9.222;2022-11-15T16:22:06;12.75;82.64
75170;SHT31;63749;49.186;9.222;2022-11-15T16:24:31;12.69;82.79
75170;SHT31;63749;49.186;9.222;2022-11-15T16:26:56;12.63;82.84
75170;SHT31;63749;49.186;9.222;2022-11-15T16:29:22;12.56;82.78
75170;SHT31;63749;49.186;9.222;2022-11-15T16:31:47;12.53;82.83
75170;SHT31;63749;49.186;9.222;2022-11-15T16:34:12;12.50;82.72
75170;SHT31;63749;49.186;9.222;2022-11-15T16:36:38;12.52;82.46
75170;SHT31;63749;49.186;9.222;2022-11-15T16:39:03;12.52;82.32
75170;SHT31;63749;49.186;9.222;2022-11-15T16:41:29;12.53;82.36
75170;SHT31;63749;49.186;9.222;2022-11-15T16:43:54;12.53;82.26
75170;SHT31;63749;49.186;9.222;2022-11-15T16:46:22;12.53;82.05
75170;SHT31;63749;49.186;9.222;2022-11-15T16:48:48;12.58;81.85
75170;SHT31;63749;49.186;9.222;2022-11-15T16:51:14;12.56;81.82
75170;SHT31;63749;49.186;9.222;2022-11-15T16:53:40;12.60;82.01
75170;SHT31;63749;49.186;9.222;2022-11-15T16:56:29;13.14;89.30
75170;SHT31;63749;49.186;9.222;2022-11-15T16:58:56;13.61;88.15
75170;SHT31;63749;49.186;9.222;2022-11-15T17:01:29;13.89;86.90
75170;SHT31;63749;49.186;9.222;2022-11-15T17:03:55;13.90;83.85
75170;SHT31;63749;49.186;9.222;2022-11-15T17:06:21;13.82;82.90
75170;SHT31;63749;49.186;9.222;2022-11-15T17:08:47;13.95;82.73
75170;SHT31;63749;49.186;9.222;2022-11-15T17:11:20;13.61;82.36
75170;SHT31;63749;49.186;9.222;2022-11-15T17:13:47;13.43;80.36
75170;SHT31;63749;49.186;9.222;2022-11-15T17:16:15;13.58;81.72
75170;SHT31;63749;49.186;9.222;2022-11-15T17:18:41;13.62;79.27
75170;SHT31;63749;49.186;9.222;2022-11-15T17:21:15;13.47;82.32
75170;SHT31;63749;49.186;9.222;2022-11-15T17:23:41;13.31;81.45